createdAt,value
2023-01-19T00:00:34.743Z,14.93
2023-01-19T00:03:03.218Z,8.50
2023-01-19T00:05:30.019Z,12.73
2023-01-19T00:07:56.881Z,8.80
2023-01-19T00:10:23.538Z,10.85
2023-01-19T00:12:50.136Z,10.20
2023-01-19T00:15:16.745Z,13.77
2023-01-19T00:17:43.446Z,17.10
2023-01-19T00:20:11.047Z,11.07
2023-01-19T00:22:37.650Z,8.73
2023-01-19T00:25:04.500Z,4.97
2023-01-19T00:27:34.844Z,2.72
2023-01-19T00:30:01.997Z,2.55
2023-01-19T00:32:28.704Z,2.60
2023-01-19T00:34:55.512Z,3.75
2023-01-19T00:37:22.207Z,3.20
2023-01-19T00:39:48.772Z,3.20
2023-01-19T00:42:33.744Z,3.35
2023-01-19T00:45:00.389Z,4.03
2023-01-19T00:47:27.007Z,3.80
2023-01-19T00:49:53.580Z,3.27
2023-01-19T00:52:20.242Z,2.30
2023-01-19T00:54:46.812Z,6.75
2023-01-19T00:57:14.620Z,13.10
2023-01-19T00:59:41.269Z,14.07
2023-01-19T01:02:08.271Z,8.87
2023-01-19T01:04:35.073Z,10.68
2023-01-19T01:07:01.790Z,10.88
2023-01-19T01:09:28.600Z,12.15
2023-01-19T01:11:55.265Z,11.27
2023-01-19T01:14:22.183Z,13.17
2023-01-19T01:16:48.857Z,12.98
2023-01-19T01:19:15.991Z,11.90
2023-01-19T01:21:42.948Z,14.48
2023-01-19T01:24:10.131Z,13.85
2023-01-19T01:26:36.857Z,10.93
2023-01-19T01:29:05.739Z,6.90
2023-01-19T01:31:32.398Z,7.40
2023-01-19T01:33:58.975Z,8.05
2023-01-19T01:36:28.997Z,8.98
2023-01-19T01:38:55.600Z,6.87
2023-01-19T01:41:22.167Z,7.95
2023-01-19T01:43:56.525Z,6.53
2023-01-19T01:46:23.174Z,5.50
2023-01-19T01:49:15.748Z,6.40
2023-01-19T01:51:53.207Z,4.13
2023-01-19T01:54:25.563Z,3.15
2023-01-19T01:56:55.142Z,4.68
2023-01-19T01:59:29.657Z,6.75
2023-01-19T02:02:17.857Z,4.22
2023-01-19T02:04:53.750Z,5.93
2023-01-19T02:07:47.918Z,3.50
2023-01-19T02:10:33.356Z,5.10
2023-01-19T02:13:18.906Z,3.10
2023-01-19T02:15:46.455Z,5.65
2023-01-19T02:18:13.979Z,8.37
2023-01-19T02:20:44.969Z,10.88
2023-01-19T02:23:19.893Z,4.10
2023-01-19T02:25:48.399Z,5.80
2023-01-19T02:28:15.488Z,4.82
2023-01-19T02:30:42.418Z,7.57
2023-01-19T02:33:09.121Z,11.02
2023-01-19T02:35:39.528Z,5.70
2023-01-19T02:38:08.145Z,7.78
2023-01-19T02:40:36.868Z,9.35
2023-01-19T02:43:07.162Z,6.50
2023-01-19T02:45:34.569Z,6.63
2023-01-19T02:48:01.228Z,9.13
2023-01-19T02:50:59.470Z,8.18
2023-01-19T02:53:40.501Z,9.55
2023-01-19T02:56:09.855Z,5.97
2023-01-19T02:58:53.537Z,8.25
2023-01-19T03:01:31.826Z,7.35
2023-01-19T03:04:14.487Z,5.45
2023-01-19T03:06:59.096Z,4.88
2023-01-19T03:09:32.533Z,5.47
2023-01-19T03:12:31.229Z,3.17
2023-01-19T03:15:02.189Z,7.13
2023-01-19T03:17:31.762Z,3.03
2023-01-19T03:19:58.377Z,5.78
2023-01-19T03:22:29.041Z,4.63
2023-01-19T03:24:59.582Z,3.90
2023-01-19T03:27:40.717Z,4.68
2023-01-19T03:30:19.791Z,3.63
2023-01-19T03:32:58.547Z,3.78
2023-01-19T03:35:29.434Z,2.97
2023-01-19T03:37:58.217Z,5.20
2023-01-19T03:40:29.427Z,1.85
2023-01-19T03:42:56.547Z,9.75
2023-01-19T03:45:23.599Z,3.25
2023-01-19T03:47:50.602Z,2.53
2023-01-19T03:50:29.495Z,5.68
2023-01-19T03:53:07.771Z,6.55
2023-01-19T03:55:36.009Z,4.20
2023-01-19T03:58:02.822Z,4.03
2023-01-19T04:00:30.121Z,3.67
2023-01-19T04:02:56.816Z,7.00
2023-01-19T04:05:25.118Z,4.40
2023-01-19T04:07:52.628Z,9.30
2023-01-19T04:10:19.893Z,5.63
2023-01-19T04:12:46.480Z,5.80
2023-01-19T04:15:16.209Z,3.40
2023-01-19T04:17:44.792Z,7.82
2023-01-19T04:20:11.589Z,5.65
2023-01-19T04:22:39.274Z,3.55
2023-01-19T04:25:07.388Z,9.83
2023-01-19T04:27:35.232Z,5.75
2023-01-19T04:30:03.567Z,4.63
2023-01-19T04:32:32.023Z,4.00
2023-01-19T04:34:59.205Z,5.03
2023-01-19T04:37:25.797Z,5.87
2023-01-19T04:39:52.424Z,5.70
2023-01-19T04:42:19.090Z,5.90
2023-01-19T04:44:45.912Z,5.53
2023-01-19T04:47:12.586Z,4.90
2023-01-19T04:49:39.242Z,5.47
2023-01-19T04:52:06.330Z,7.35
2023-01-19T04:54:33.358Z,6.75
2023-01-19T04:57:00.026Z,10.80
2023-01-19T04:59:26.666Z,7.72
2023-01-19T05:01:53.301Z,10.67
2023-01-19T05:04:20.020Z,9.77
2023-01-19T05:06:46.652Z,5.95
2023-01-19T05:09:15.237Z,6.80
2023-01-19T05:11:41.892Z,8.00
2023-01-19T05:14:08.533Z,12.93
2023-01-19T05:16:35.490Z,6.53
2023-01-19T05:19:02.059Z,8.88
2023-01-19T05:21:28.700Z,9.52
2023-01-19T05:23:55.333Z,8.82
2023-01-19T05:26:22.027Z,13.63
2023-01-19T05:28:50.232Z,12.02
2023-01-19T05:31:18.664Z,19.13
2023-01-19T05:33:46.215Z,13.45
2023-01-19T05:36:12.831Z,11.30
2023-01-19T05:38:39.447Z,8.63
2023-01-19T05:41:06.070Z,18.25
2023-01-19T05:43:32.651Z,13.48
2023-01-19T05:45:59.224Z,17.77
2023-01-19T05:48:25.890Z,18.08
2023-01-19T05:50:57.735Z,13.50
2023-01-19T05:53:24.400Z,15.70
2023-01-19T05:55:51.001Z,13.80
2023-01-19T05:58:17.632Z,12.70
2023-01-19T06:00:44.267Z,13.73
2023-01-19T06:03:10.918Z,15.53
2023-01-19T06:05:39.428Z,13.35
2023-01-19T06:08:06.324Z,20.45
2023-01-19T06:10:33.020Z,12.77
2023-01-19T06:13:00.049Z,11.20
2023-01-19T06:15:26.978Z,10.27
2023-01-19T06:17:53.617Z,10.95
2023-01-19T06:20:20.315Z,10.80
2023-01-19T06:22:47.568Z,12.75
2023-01-19T06:25:14.234Z,14.18
2023-01-19T06:27:45.091Z,8.57
2023-01-19T06:30:12.767Z,16.58
2023-01-19T06:32:39.512Z,17.38
2023-01-19T06:35:07.810Z,13.15
2023-01-19T06:37:34.627Z,14.50
2023-01-19T06:40:01.360Z,15.03
2023-01-19T06:42:28.257Z,12.75
2023-01-19T06:44:54.921Z,11.95
2023-01-19T06:47:21.547Z,14.63
2023-01-19T06:49:48.956Z,9.85
2023-01-19T06:52:17.396Z,9.60
2023-01-19T06:54:45.286Z,17.92
2023-01-19T06:57:13.128Z,15.68
2023-01-19T06:59:39.957Z,12.68
2023-01-19T07:02:26.585Z,13.10
2023-01-19T07:04:53.247Z,19.67
2023-01-19T07:07:19.816Z,9.95
2023-01-19T07:09:46.437Z,11.65
2023-01-19T07:12:14.664Z,14.88
2023-01-19T07:14:42.557Z,11.05
2023-01-19T07:17:09.458Z,12.60
2023-01-19T07:19:36.317Z,10.93
2023-01-19T07:22:03.200Z,12.73
2023-01-19T07:24:37.866Z,15.15
2023-01-19T07:27:05.346Z,15.15
2023-01-19T07:29:32.028Z,16.20
2023-01-19T07:31:58.662Z,13.50
2023-01-19T07:34:25.279Z,16.02
2023-01-19T07:36:51.905Z,17.25
2023-01-19T07:39:18.509Z,23.40
2023-01-19T07:41:45.073Z,18.63
2023-01-19T07:44:11.654Z,13.57
2023-01-19T07:46:38.512Z,20.95
2023-01-19T07:49:05.336Z,10.65
2023-01-19T07:51:31.945Z,12.23
2023-01-19T07:53:58.636Z,12.83
2023-01-19T07:56:27.685Z,15.77
2023-01-19T07:58:54.569Z,14.32
2023-01-19T08:01:21.547Z,19.05
2023-01-19T08:03:49.019Z,17.27
2023-01-19T08:06:27.129Z,12.70
2023-01-19T08:08:53.757Z,9.20
2023-01-19T08:11:20.376Z,17.83
2023-01-19T08:13:46.951Z,13.88
2023-01-19T08:16:13.611Z,19.35
2023-01-19T08:18:40.171Z,15.67
2023-01-19T08:21:06.811Z,13.13
2023-01-19T08:23:33.454Z,19.88
2023-01-19T08:26:00.098Z,14.43
2023-01-19T08:28:26.932Z,18.55
2023-01-19T08:30:54.513Z,16.53
2023-01-19T08:33:25.233Z,16.98
2023-01-19T08:35:53.574Z,18.92
2023-01-19T08:38:20.287Z,19.10
2023-01-19T08:40:46.980Z,15.77
2023-01-19T08:43:15.781Z,18.93
2023-01-19T08:45:49.031Z,13.27
2023-01-19T08:48:17.342Z,20.23
2023-01-19T08:50:46.715Z,25.15
2023-01-19T08:53:13.660Z,17.63
2023-01-19T08:55:40.660Z,13.00
2023-01-19T08:58:08.672Z,14.85
2023-01-19T09:00:39.446Z,19.90
2023-01-19T09:03:08.243Z,16.83
2023-01-19T09:05:38.678Z,13.25
2023-01-19T09:08:10.561Z,19.00
2023-01-19T09:10:39.100Z,13.05
2023-01-19T09:13:08.456Z,10.65
2023-01-19T09:15:37.434Z,10.82
2023-01-19T09:18:06.080Z,15.07
2023-01-19T09:20:35.874Z,9.53
2023-01-19T09:23:02.483Z,12.10
2023-01-19T09:25:29.086Z,14.20
2023-01-19T09:27:56.185Z,6.43
2023-01-19T09:30:22.998Z,9.07
2023-01-19T09:32:49.586Z,11.73
2023-01-19T09:35:16.448Z,9.02
2023-01-19T09:37:47.276Z,10.65
2023-01-19T09:40:16.326Z,11.15
2023-01-19T09:42:53.326Z,15.93
2023-01-19T09:45:29.172Z,10.07
2023-01-19T09:47:57.670Z,7.32
2023-01-19T09:50:37.683Z,10.65
2023-01-19T09:53:23.441Z,10.57
2023-01-19T09:55:51.079Z,9.80
2023-01-19T09:58:19.127Z,14.33
2023-01-19T10:00:51.623Z,13.50
2023-01-19T10:03:20.628Z,13.18
2023-01-19T10:05:58.610Z,5.68
2023-01-19T10:08:30.583Z,9.35
2023-01-19T10:10:58.303Z,11.53
2023-01-19T10:13:24.910Z,8.73
2023-01-19T10:16:18.696Z,11.32
2023-01-19T10:18:47.889Z,10.20
2023-01-19T10:21:24.665Z,8.15
2023-01-19T10:23:54.629Z,12.93
2023-01-19T10:26:40.830Z,11.02
2023-01-19T10:29:22.018Z,9.48
2023-01-19T10:31:51.672Z,10.98
2023-01-19T10:34:23.671Z,10.13
2023-01-19T10:36:57.643Z,7.47
2023-01-19T10:39:24.352Z,8.75
2023-01-19T10:41:53.519Z,9.00
2023-01-19T10:44:38.625Z,9.45
2023-01-19T10:47:12.866Z,9.75
2023-01-19T10:49:44.559Z,10.53
2023-01-19T10:52:34.183Z,14.75
2023-01-19T10:55:03.041Z,7.35
2023-01-19T10:57:34.350Z,7.93
2023-01-19T11:00:01.120Z,8.77
2023-01-19T11:02:30.291Z,9.17
2023-01-19T11:05:21.709Z,8.15
2023-01-19T11:07:48.300Z,8.73
2023-01-19T11:10:17.902Z,8.23
2023-01-19T11:13:12.610Z,5.72
2023-01-19T11:15:53.415Z,8.33
2023-01-19T11:18:33.914Z,7.55
2023-01-19T11:21:15.823Z,4.35
2023-01-19T11:23:50.885Z,4.78
2023-01-19T11:26:39.354Z,7.93
2023-01-19T11:29:06.743Z,11.30
2023-01-19T11:31:35.169Z,7.50
2023-01-19T11:34:21.786Z,8.82
2023-01-19T11:36:57.495Z,7.53
2023-01-19T11:39:27.942Z,5.60
2023-01-19T11:42:01.323Z,4.90
2023-01-19T11:44:32.246Z,7.32
2023-01-19T11:47:01.395Z,8.68
2023-01-19T11:49:46.499Z,9.90
2023-01-19T11:52:39.798Z,9.98
2023-01-19T11:55:22.221Z,7.40
2023-01-19T11:57:54.104Z,5.43
2023-01-19T12:00:34.039Z,7.22
2023-01-19T12:03:32.838Z,6.95
2023-01-19T12:06:05.359Z,6.57
2023-01-19T12:08:39.185Z,7.03
2023-01-19T12:11:08.765Z,5.97
2023-01-19T12:13:36.163Z,5.22
2023-01-19T12:16:13.369Z,6.90
2023-01-19T12:18:44.610Z,9.32
2023-01-19T12:21:11.344Z,4.77
2023-01-19T12:23:57.122Z,4.97
2023-01-19T12:26:44.551Z,8.52
2023-01-19T12:29:13.518Z,8.18
2023-01-19T12:31:42.834Z,7.15
2023-01-19T12:34:31.190Z,10.50
2023-01-19T12:37:03.427Z,12.45
2023-01-19T12:39:31.247Z,8.15
2023-01-19T12:42:27.548Z,8.90
2023-01-19T12:45:13.576Z,7.97
2023-01-19T12:47:40.460Z,10.97
2023-01-19T12:50:16.720Z,4.03
2023-01-19T12:52:51.628Z,6.80
2023-01-19T12:55:26.824Z,6.53
2023-01-19T12:58:14.981Z,6.95
2023-01-19T13:00:43.588Z,5.23
2023-01-19T13:03:19.138Z,4.82
2023-01-19T13:05:50.848Z,11.18
2023-01-19T13:08:20.145Z,8.85
2023-01-19T13:10:58.656Z,10.50
2023-01-19T13:13:36.347Z,4.27
2023-01-19T13:16:29.831Z,6.00
2023-01-19T13:19:01.094Z,5.13
2023-01-19T13:21:47.888Z,7.00
2023-01-19T13:24:17.420Z,4.95
2023-01-19T13:26:49.846Z,7.57
2023-01-19T13:29:34.252Z,5.22
2023-01-19T13:32:03.828Z,9.85
2023-01-19T13:34:43.895Z,8.20
2023-01-19T13:37:41.428Z,8.70
2023-01-19T13:40:22.473Z,4.27
2023-01-19T13:42:51.376Z,7.75
2023-01-19T13:45:33.790Z,6.25
2023-01-19T13:48:04.442Z,5.15
2023-01-19T13:50:38.509Z,4.35
2023-01-19T13:53:23.444Z,2.90
2023-01-19T13:56:20.654Z,6.90
2023-01-19T13:59:00.803Z,7.88
2023-01-19T14:01:29.272Z,6.32
2023-01-19T14:03:56.399Z,5.30
2023-01-19T14:06:35.704Z,5.63
2023-01-19T14:09:09.303Z,6.47
2023-01-19T14:11:36.081Z,8.77
2023-01-19T14:14:02.904Z,5.55
2023-01-19T14:16:29.623Z,3.63
2023-01-19T14:19:01.028Z,3.67
2023-01-19T14:21:38.187Z,6.05
2023-01-19T14:24:18.799Z,3.28
2023-01-19T14:26:54.661Z,3.83
2023-01-19T14:29:34.765Z,5.32
2023-01-19T14:32:02.022Z,3.13
2023-01-19T14:34:41.318Z,5.50
2023-01-19T14:37:24.089Z,3.22
2023-01-19T14:39:56.080Z,4.22
2023-01-19T14:42:31.042Z,4.05
2023-01-19T14:45:01.445Z,6.50
2023-01-19T14:47:42.888Z,6.63
2023-01-19T14:50:26.422Z,4.13
2023-01-19T14:53:08.067Z,4.03
2023-01-19T14:55:46.985Z,3.88
2023-01-19T14:58:16.511Z,4.67
2023-01-19T15:00:44.710Z,5.32
2023-01-19T15:03:11.590Z,6.53
2023-01-19T15:05:40.120Z,5.40
2023-01-19T15:08:07.629Z,5.18
2023-01-19T15:10:39.192Z,4.87
2023-01-19T15:13:05.878Z,3.78
2023-01-19T15:15:34.415Z,6.00
2023-01-19T15:18:03.855Z,6.53
2023-01-19T15:20:30.894Z,5.55
2023-01-19T15:22:57.708Z,4.27
2023-01-19T15:25:27.769Z,3.65
2023-01-19T15:27:59.531Z,2.50
2023-01-19T15:30:31.195Z,5.13
2023-01-19T15:32:58.945Z,3.90
2023-01-19T15:35:26.537Z,4.17
2023-01-19T15:37:54.552Z,5.22
2023-01-19T15:40:24.184Z,6.47
2023-01-19T15:42:50.902Z,3.45
2023-01-19T15:45:23.547Z,12.13
2023-01-19T15:47:50.257Z,3.30
2023-01-19T15:50:17.250Z,5.82
2023-01-19T15:52:43.996Z,4.75
2023-01-19T15:55:12.304Z,5.60
2023-01-19T15:57:38.928Z,8.27
2023-01-19T16:00:06.363Z,4.43
2023-01-19T16:02:33.297Z,5.55
2023-01-19T16:04:59.940Z,6.40
2023-01-19T16:07:26.723Z,9.38
2023-01-19T16:09:53.525Z,3.70
2023-01-19T16:12:20.289Z,6.03
2023-01-19T16:14:46.915Z,7.25
2023-01-19T16:17:13.708Z,6.05
2023-01-19T16:19:40.366Z,3.22
2023-01-19T16:22:06.996Z,3.75
2023-01-19T16:24:33.650Z,5.90
2023-01-19T16:27:00.489Z,4.80
2023-01-19T16:29:27.475Z,8.00
2023-01-19T16:31:54.280Z,8.43
2023-01-19T16:34:20.907Z,4.78
2023-01-19T16:36:47.589Z,4.97
2023-01-19T16:39:15.196Z,5.60
2023-01-19T16:41:43.037Z,9.25
2023-01-19T16:44:14.563Z,8.85
2023-01-19T16:46:44.540Z,5.82
2023-01-19T16:49:21.112Z,7.07
2023-01-19T16:51:48.782Z,4.93
2023-01-19T16:54:17.661Z,7.15
2023-01-19T16:56:44.477Z,4.78
2023-01-19T16:59:12.752Z,8.27
2023-01-19T17:01:40.089Z,6.00
2023-01-19T17:04:07.042Z,6.63
2023-01-19T17:06:33.748Z,6.13
2023-01-19T17:09:00.422Z,4.90
2023-01-19T17:11:29.722Z,6.13
2023-01-19T17:14:00.121Z,6.03
2023-01-19T17:16:28.118Z,5.75
2023-01-19T17:18:57.090Z,7.75
2023-01-19T17:21:24.613Z,5.95
2023-01-19T17:23:53.597Z,5.70
2023-01-19T17:26:20.985Z,6.00
2023-01-19T17:28:48.060Z,5.35
2023-01-19T17:31:17.482Z,5.18
2023-01-19T17:33:46.014Z,4.90
2023-01-19T17:36:15.566Z,8.30
2023-01-19T17:38:42.276Z,4.73
2023-01-19T17:41:20.882Z,6.97
2023-01-19T17:43:50.183Z,6.45
2023-01-19T17:46:17.843Z,6.53
2023-01-19T17:48:44.826Z,8.98
2023-01-19T17:51:13.312Z,5.53
2023-01-19T17:53:41.355Z,9.27
2023-01-19T17:56:10.942Z,7.80
2023-01-19T17:58:38.150Z,6.05
2023-01-19T18:01:09.394Z,5.38
2023-01-19T18:03:36.218Z,4.77
2023-01-19T18:06:03.072Z,8.02
2023-01-19T18:08:30.116Z,11.95
2023-01-19T18:10:58.198Z,4.28
2023-01-19T18:13:25.374Z,13.75
2023-01-19T18:15:52.694Z,4.53
2023-01-19T18:18:19.363Z,5.38
2023-01-19T18:20:45.953Z,11.60
2023-01-19T18:23:12.628Z,6.07
2023-01-19T18:25:39.681Z,7.78
2023-01-19T18:28:07.136Z,9.50
2023-01-19T18:30:37.685Z,10.77
2023-01-19T18:33:04.436Z,7.68
2023-01-19T18:35:30.999Z,6.57
2023-01-19T18:37:58.519Z,6.43
2023-01-19T18:40:25.456Z,6.93
2023-01-19T18:42:52.064Z,4.97
2023-01-19T18:45:18.686Z,6.38
2023-01-19T18:47:45.298Z,9.75
2023-01-19T18:50:14.032Z,6.95
2023-01-19T18:52:40.767Z,6.30
2023-01-19T18:55:08.083Z,9.43
2023-01-19T18:57:35.693Z,9.15
2023-01-19T19:00:03.952Z,7.60
2023-01-19T19:02:30.568Z,7.37
2023-01-19T19:04:57.159Z,8.15
2023-01-19T19:07:23.791Z,5.38
2023-01-19T19:09:50.398Z,6.65
2023-01-19T19:12:17.041Z,6.45
2023-01-19T19:14:43.621Z,5.63
2023-01-19T19:17:10.236Z,5.30
2023-01-19T19:19:36.794Z,6.50
2023-01-19T19:22:03.573Z,6.78
2023-01-19T19:24:30.460Z,6.72
2023-01-19T19:26:57.062Z,5.57
2023-01-19T19:29:23.716Z,6.35
2023-01-19T19:31:50.321Z,7.05
2023-01-19T19:34:17.000Z,5.35
2023-01-19T19:36:43.567Z,4.78
2023-01-19T19:39:10.289Z,3.10
2023-01-19T19:41:38.691Z,2.97
2023-01-19T19:44:05.409Z,2.58
2023-01-19T19:46:32.093Z,3.60
2023-01-19T19:48:58.745Z,4.68
2023-01-19T19:51:27.453Z,3.87
2023-01-19T19:53:56.254Z,3.65
2023-01-19T19:56:24.943Z,3.95
2023-01-19T19:58:54.596Z,1.80
2023-01-19T20:01:26.073Z,4.75
2023-01-19T20:03:54.484Z,3.20
2023-01-19T20:06:23.507Z,3.25
2023-01-19T20:08:52.196Z,1.45
2023-01-19T20:11:25.487Z,1.95
2023-01-19T20:13:52.894Z,2.97
2023-01-19T20:16:22.558Z,1.13
2023-01-19T20:18:56.674Z,1.45
2023-01-19T20:21:24.637Z,2.47
2023-01-19T20:23:52.975Z,1.90
2023-01-19T20:26:22.349Z,2.40
2023-01-19T20:28:49.044Z,2.57
2023-01-19T20:31:19.367Z,2.15
2023-01-19T20:33:47.299Z,3.78
2023-01-19T20:36:14.408Z,2.78
2023-01-19T20:38:41.307Z,1.70
2023-01-19T20:41:09.074Z,2.67
2023-01-19T20:43:35.993Z,1.15
2023-01-19T20:46:03.598Z,4.32
2023-01-19T20:48:30.403Z,2.35
2023-01-19T20:51:06.580Z,3.67
2023-01-19T20:53:34.284Z,2.17
2023-01-19T20:56:11.041Z,3.30
2023-01-19T20:58:37.852Z,1.88
2023-01-19T21:01:15.084Z,2.55
2023-01-19T21:03:42.194Z,1.63
2023-01-19T21:06:09.605Z,3.88
2023-01-19T21:08:36.685Z,1.50
2023-01-19T21:11:04.002Z,3.33
2023-01-19T21:13:31.532Z,2.88
2023-01-19T21:15:59.066Z,2.47
2023-01-19T21:18:27.836Z,4.13
2023-01-19T21:20:57.425Z,3.30
2023-01-19T21:23:27.598Z,2.92
2023-01-19T21:25:56.784Z,3.33
2023-01-19T21:28:23.908Z,4.87
2023-01-19T21:30:52.691Z,3.15
2023-01-19T21:33:34.612Z,2.33
2023-01-19T21:36:01.287Z,3.25
2023-01-19T21:38:29.267Z,3.60
2023-01-19T21:40:57.436Z,3.60
2023-01-19T21:43:25.525Z,3.83
2023-01-19T21:45:52.554Z,4.65
2023-01-19T21:48:19.791Z,4.82
2023-01-19T21:50:55.420Z,10.07
2023-01-19T21:53:21.990Z,6.93
2023-01-19T21:55:48.560Z,6.40
2023-01-19T21:58:15.175Z,5.65
2023-01-19T22:00:41.841Z,6.50
2023-01-19T22:03:08.549Z,4.97
2023-01-19T22:05:36.914Z,8.38
2023-01-19T22:08:04.850Z,6.68
2023-01-19T22:10:31.562Z,6.65
2023-01-19T22:12:58.152Z,7.28
2023-01-19T22:15:24.848Z,8.40
2023-01-19T22:17:51.461Z,8.93
2023-01-19T22:20:18.210Z,6.70
2023-01-19T22:22:44.867Z,10.75
2023-01-19T22:25:11.680Z,7.93
2023-01-19T22:27:38.739Z,9.03
2023-01-19T22:30:06.077Z,11.93
2023-01-19T22:32:32.825Z,9.48
2023-01-19T22:34:59.438Z,13.30
2023-01-19T22:37:26.044Z,10.75
2023-01-19T22:39:53.233Z,10.13
2023-01-19T22:42:19.874Z,9.23
2023-01-19T22:44:46.872Z,9.48
2023-01-19T22:47:13.522Z,8.50
2023-01-19T22:49:40.597Z,9.85
2023-01-19T22:52:07.261Z,9.63
2023-01-19T22:54:33.981Z,9.23
2023-01-19T22:57:00.672Z,11.05
2023-01-19T22:59:27.339Z,7.18
2023-01-19T23:01:54.048Z,8.60
2023-01-19T23:04:20.822Z,8.98
2023-01-19T23:06:50.386Z,7.55
2023-01-19T23:09:17.527Z,7.25
2023-01-19T23:11:50.033Z,6.53
2023-01-19T23:14:19.543Z,9.80
2023-01-19T23:16:47.113Z,6.63
2023-01-19T23:19:14.781Z,8.68
2023-01-19T23:21:41.528Z,8.32
2023-01-19T23:24:08.818Z,7.00
2023-01-19T23:26:38.085Z,8.37
2023-01-19T23:29:11.636Z,7.85
2023-01-19T23:31:39.928Z,6.30
2023-01-19T23:34:08.448Z,8.48
2023-01-19T23:36:36.924Z,5.75
2023-01-19T23:39:13.667Z,5.47
2023-01-19T23:41:40.407Z,7.18
2023-01-19T23:44:07.290Z,5.32
2023-01-19T23:46:33.978Z,6.35
2023-01-19T23:49:00.631Z,10.17
2023-01-19T23:51:29.885Z,7.07
2023-01-19T23:53:57.876Z,6.00
2023-01-19T23:56:27.222Z,11.23
2023-01-19T23:58:57.432Z,10.32
